createdAt,value
2022-08-30T00:02:20.943Z,100637.66
2022-08-30T00:04:48.278Z,100634.59
2022-08-30T00:07:15.340Z,100638.75
2022-08-30T00:09:42.337Z,100641.22
2022-08-30T00:12:09.585Z,100642.09
2022-08-30T00:14:36.440Z,100640.44
2022-08-30T00:17:03.506Z,100638.75
2022-08-30T00:19:30.204Z,100640.22
2022-08-30T00:21:57.013Z,100644.19
2022-08-30T00:24:23.719Z,100633.41
2022-08-30T00:26:50.566Z,100644.16
2022-08-30T00:29:17.329Z,100648.34
2022-08-30T00:31:44.271Z,100647.72
2022-08-30T00:34:11.066Z,100654.13
2022-08-30T00:36:37.858Z,100650.22
2022-08-30T00:39:05.531Z,100653.16
2022-08-30T00:41:32.355Z,100650.88
2022-08-30T00:44:00.848Z,100645.91
2022-08-30T00:46:28.290Z,100639.69
2022-08-30T00:48:56.415Z,100640.75
2022-08-30T00:51:24.175Z,100643.84
2022-08-30T00:53:57.007Z,100645.69
2022-08-30T00:56:25.898Z,100640.97
2022-08-30T00:58:57.350Z,100649.25
2022-08-30T01:01:25.492Z,100638.50
2022-08-30T01:03:53.548Z,100634.41
2022-08-30T01:06:20.957Z,100641.41
2022-08-30T01:08:48.478Z,100643.72
2022-08-30T01:11:20.295Z,100646.63
2022-08-30T01:13:50.497Z,100637.31
2022-08-30T01:16:18.442Z,100643.09
2022-08-30T01:18:45.693Z,100635.63
2022-08-30T01:21:46.405Z,100636.44
2022-08-30T01:24:14.371Z,100636.88
2022-08-30T01:26:41.279Z,100637.25
2022-08-30T01:29:13.015Z,100632.66
2022-08-30T01:31:39.973Z,100626.25
2022-08-30T01:34:08.140Z,100633.47
2022-08-30T01:36:44.736Z,100630.56
2022-08-30T01:39:15.791Z,100632.66
2022-08-30T01:41:43.589Z,100627.69
2022-08-30T01:44:12.198Z,100634.13
2022-08-30T01:46:45.628Z,100632.25
2022-08-30T01:49:16.785Z,100621.06
2022-08-30T01:51:43.735Z,100617.94
2022-08-30T01:54:10.829Z,100623.72
2022-08-30T01:56:37.945Z,100617.91
2022-08-30T01:59:06.049Z,100620.22
2022-08-30T02:01:36.984Z,100621.59
2022-08-30T02:04:05.205Z,100617.84
2022-08-30T02:06:32.365Z,100607.09
2022-08-30T02:08:59.517Z,100607.50
2022-08-30T02:11:26.816Z,100607.78
2022-08-30T02:13:53.789Z,100601.38
2022-08-30T02:16:23.187Z,100598.25
2022-08-30T02:18:51.605Z,100605.81
2022-08-30T02:21:18.787Z,100600.22
2022-08-30T02:23:45.808Z,100604.34
2022-08-30T02:26:13.845Z,100604.72
2022-08-30T02:28:42.905Z,100597.63
2022-08-30T02:31:20.443Z,100597.59
2022-08-30T02:33:50.323Z,100598.16
2022-08-30T02:36:18.294Z,100598.81
2022-08-30T02:38:45.269Z,100603.31
2022-08-30T02:41:12.165Z,100592.53
2022-08-30T02:43:38.958Z,100598.34
2022-08-30T02:46:06.110Z,100606.03
2022-08-30T02:48:32.887Z,100600.03
2022-08-30T02:51:05.973Z,100602.69
2022-08-30T02:53:36.969Z,100595.38
2022-08-30T02:56:04.356Z,100604.06
2022-08-30T02:58:31.563Z,100600.50
2022-08-30T03:00:58.300Z,100603.84
2022-08-30T03:03:25.755Z,100610.03
2022-08-30T03:05:52.555Z,100603.03
2022-08-30T03:08:19.361Z,100601.13
2022-08-30T03:10:46.237Z,100607.75
2022-08-30T03:13:13.058Z,100603.59
2022-08-30T03:15:40.585Z,100605.50
2022-08-30T03:18:07.919Z,100605.72
2022-08-30T03:20:37.441Z,100606.94
2022-08-30T03:23:04.837Z,100604.03
2022-08-30T03:25:31.634Z,100611.91
2022-08-30T03:27:58.421Z,100607.34
2022-08-30T03:30:25.454Z,100611.91
2022-08-30T03:32:52.684Z,100619.63
2022-08-30T03:35:20.090Z,100625.19
2022-08-30T03:37:47.359Z,100620.25
2022-08-30T03:40:17.263Z,100627.88
2022-08-30T03:42:46.794Z,100625.41
2022-08-30T03:45:16.576Z,100623.13
2022-08-30T03:47:44.184Z,100629.75
2022-08-30T03:50:12.461Z,100630.59
2022-08-30T03:52:39.165Z,100637.69
2022-08-30T03:55:06.909Z,100632.94
2022-08-30T03:57:33.871Z,100633.38
2022-08-30T04:00:05.187Z,100635.44
2022-08-30T04:02:38.539Z,100638.78
2022-08-30T04:05:05.907Z,100650.25
2022-08-30T04:07:32.682Z,100646.81
2022-08-30T04:09:59.623Z,100648.13
2022-08-30T04:12:26.984Z,100644.41
2022-08-30T04:14:53.726Z,100655.00
2022-08-30T04:17:20.473Z,100663.31
2022-08-30T04:19:47.248Z,100662.72
2022-08-30T04:22:13.994Z,100663.97
2022-08-30T04:24:41.666Z,100670.38
2022-08-30T04:27:09.040Z,100675.97
2022-08-30T04:29:35.834Z,100675.97
2022-08-30T04:32:02.925Z,100677.63
2022-08-30T04:34:29.699Z,100676.38
2022-08-30T04:36:56.421Z,100680.50
2022-08-30T04:39:23.630Z,100689.63
2022-08-30T04:41:50.341Z,100692.31
2022-08-30T04:44:19.383Z,100695.22
2022-08-30T04:46:46.916Z,100695.13
2022-08-30T04:49:13.697Z,100704.22
2022-08-30T04:51:40.824Z,100704.81
2022-08-30T04:54:07.506Z,100700.41
2022-08-30T04:56:34.854Z,100703.88
2022-08-30T04:59:03.730Z,100710.72
2022-08-30T05:01:37.197Z,100706.78
2022-08-30T05:04:13.394Z,100711.91
2022-08-30T05:06:40.217Z,100719.81
2022-08-30T05:09:07.056Z,100720.78
2022-08-30T05:11:33.773Z,100719.44
2022-08-30T05:14:00.686Z,100726.78
2022-08-30T05:16:27.750Z,100720.25
2022-08-30T05:18:54.765Z,100718.81
2022-08-30T05:21:26.647Z,100723.97
2022-08-30T05:23:56.026Z,100721.22
2022-08-30T05:26:25.868Z,100718.22
2022-08-30T05:28:52.709Z,100724.91
2022-08-30T05:31:26.152Z,100718.13
2022-08-30T05:33:54.562Z,100717.78
2022-08-30T05:36:26.298Z,100721.75
2022-08-30T05:38:54.420Z,100729.28
2022-08-30T05:41:22.371Z,100730.31
2022-08-30T05:43:49.333Z,100722.19
2022-08-30T05:46:19.647Z,100726.03
2022-08-30T05:48:47.470Z,100722.66
2022-08-30T05:51:18.281Z,100726.69
2022-08-30T05:53:46.394Z,100724.53
2022-08-30T05:56:16.094Z,100732.00
2022-08-30T05:58:43.620Z,100727.31
2022-08-30T06:01:25.771Z,100732.25
2022-08-30T06:03:55.156Z,100732.09
2022-08-30T06:06:22.287Z,100733.41
2022-08-30T06:08:49.570Z,100731.31
2022-08-30T06:11:22.414Z,100731.66
2022-08-30T06:13:50.677Z,100734.03
2022-08-30T06:16:20.010Z,100730.75
2022-08-30T06:18:47.842Z,100726.84
2022-08-30T06:21:25.400Z,100731.81
2022-08-30T06:23:52.969Z,100733.13
2022-08-30T06:26:19.754Z,100730.81
2022-08-30T06:28:46.682Z,100739.13
2022-08-30T06:31:16.850Z,100739.84
2022-08-30T06:33:44.765Z,100742.09
2022-08-30T06:36:16.116Z,100745.84
2022-08-30T06:38:42.837Z,100734.19
2022-08-30T06:41:12.346Z,100737.25
2022-08-30T06:43:38.941Z,100738.19
2022-08-30T06:46:08.846Z,100737.47
2022-08-30T06:48:35.605Z,100752.44
2022-08-30T06:51:02.471Z,100745.59
2022-08-30T06:53:31.010Z,100744.31
2022-08-30T06:56:16.472Z,100753.03
2022-08-30T06:58:44.743Z,100744.19
2022-08-30T07:01:14.110Z,100744.53
2022-08-30T07:03:40.909Z,100745.59
2022-08-30T07:06:08.778Z,100750.34
2022-08-30T07:08:36.457Z,100752.38
2022-08-30T07:11:05.411Z,100754.44
2022-08-30T07:13:32.682Z,100757.28
2022-08-30T07:15:59.614Z,100757.16
2022-08-30T07:18:45.317Z,100758.22
2022-08-30T07:21:15.335Z,100758.31
2022-08-30T07:23:48.321Z,100763.22
2022-08-30T07:26:21.927Z,100751.63
2022-08-30T07:28:49.001Z,100752.47
2022-08-30T07:31:22.806Z,100753.47
2022-08-30T07:33:50.952Z,100760.06
2022-08-30T07:36:18.235Z,100759.28
2022-08-30T07:38:46.662Z,100767.19
2022-08-30T07:41:19.683Z,100770.59
2022-08-30T07:43:47.057Z,100778.38
2022-08-30T07:46:13.887Z,100771.59
2022-08-30T07:48:41.217Z,100772.81
2022-08-30T07:51:13.123Z,100773.06
2022-08-30T07:53:39.976Z,100771.56
2022-08-30T07:56:06.943Z,100773.56
2022-08-30T07:58:34.132Z,100774.38
2022-08-30T08:01:02.038Z,100766.22
2022-08-30T08:03:29.958Z,100775.66
2022-08-30T08:05:57.055Z,100774.72
2022-08-30T08:08:23.884Z,100772.22
2022-08-30T08:10:50.579Z,100778.94
2022-08-30T08:13:17.618Z,100766.28
2022-08-30T08:15:44.441Z,100774.06
2022-08-30T08:18:11.333Z,100770.56
2022-08-30T08:20:38.161Z,100769.81
2022-08-30T08:23:04.962Z,100775.84
2022-08-30T08:25:31.970Z,100776.34
2022-08-30T08:27:59.283Z,100773.94
2022-08-30T08:30:26.053Z,100781.97
2022-08-30T08:32:52.975Z,100778.69
2022-08-30T08:35:20.172Z,100774.69
2022-08-30T08:37:46.887Z,100773.31
2022-08-30T08:40:19.158Z,100776.59
2022-08-30T08:42:59.306Z,100784.72
2022-08-30T08:45:35.115Z,100790.41
2022-08-30T08:48:03.205Z,100786.75
2022-08-30T08:50:31.364Z,100773.53
2022-08-30T08:53:46.224Z,100776.00
2022-08-30T08:56:16.500Z,100771.88
2022-08-30T08:58:48.817Z,100767.00
2022-08-30T09:01:19.526Z,100765.88
2022-08-30T09:03:47.450Z,100768.66
2022-08-30T09:06:28.581Z,100766.78
2022-08-30T09:08:55.762Z,100767.84
2022-08-30T09:11:28.759Z,100754.50
2022-08-30T09:13:55.896Z,100754.94
2022-08-30T09:16:47.505Z,100744.81
2022-08-30T09:19:36.918Z,100746.53
2022-08-30T09:22:16.031Z,100738.31
2022-08-30T09:24:50.199Z,100737.63
2022-08-30T09:27:18.999Z,100728.41
2022-08-30T09:30:11.267Z,100735.28
2022-08-30T09:33:02.251Z,100721.78
2022-08-30T09:35:37.085Z,100713.38
2022-08-30T09:38:07.253Z,100715.13
2022-08-30T09:40:37.466Z,100712.69
2022-08-30T09:43:16.395Z,100714.06
2022-08-30T09:45:47.445Z,100710.03
2022-08-30T09:48:41.521Z,100710.84
2022-08-30T09:51:11.657Z,100704.63
2022-08-30T09:54:14.436Z,100706.66
2022-08-30T09:56:59.272Z,100708.09
2022-08-30T09:59:31.799Z,100703.25
2022-08-30T10:02:30.264Z,100699.53
2022-08-30T10:05:12.151Z,100700.63
2022-08-30T10:08:13.058Z,100697.09
2022-08-30T10:10:51.362Z,100689.97
2022-08-30T10:14:00.852Z,100700.34
2022-08-30T10:17:05.090Z,100702.00
2022-08-30T10:20:02.525Z,100702.25
2022-08-30T10:22:37.838Z,100694.09
2022-08-30T10:25:16.447Z,100693.66
2022-08-30T10:27:50.076Z,100693.94
2022-08-30T10:30:18.812Z,100689.91
2022-08-30T10:33:06.770Z,100692.16
2022-08-30T10:35:39.201Z,100680.59
2022-08-30T10:38:11.859Z,100686.34
2022-08-30T10:41:03.078Z,100686.91
2022-08-30T10:44:00.437Z,100677.09
2022-08-30T10:46:39.082Z,100678.28
2022-08-30T10:49:14.569Z,100681.38
2022-08-30T10:52:34.275Z,100674.13
2022-08-30T10:55:06.129Z,100672.88
2022-08-30T10:57:32.882Z,100667.22
2022-08-30T11:00:11.083Z,100669.47
2022-08-30T11:03:23.905Z,100658.88
2022-08-30T11:06:12.328Z,100651.84
2022-08-30T11:08:51.675Z,100660.09
2022-08-30T11:11:56.826Z,100653.78
2022-08-30T11:14:25.361Z,100642.38
2022-08-30T11:16:54.972Z,100653.91
2022-08-30T11:19:24.697Z,100644.66
2022-08-30T11:22:08.125Z,100651.50
2022-08-30T11:25:01.766Z,100642.56
2022-08-30T11:27:52.512Z,100645.59
2022-08-30T11:30:26.739Z,100646.97
2022-08-30T11:32:59.624Z,100637.72
2022-08-30T11:35:48.376Z,100636.09
2022-08-30T11:38:28.350Z,100635.28
2022-08-30T11:40:55.121Z,100634.47
2022-08-30T11:43:33.923Z,100629.56
2022-08-30T11:46:27.146Z,100623.53
2022-08-30T11:49:15.605Z,100620.53
2022-08-30T11:52:28.490Z,100618.06
2022-08-30T11:55:23.272Z,100615.03
2022-08-30T11:58:26.080Z,100607.13
2022-08-30T12:01:51.876Z,100605.75
2022-08-30T12:04:17.370Z,100611.97
2022-08-30T12:06:46.515Z,100608.16
2022-08-30T12:09:33.498Z,100607.59
2022-08-30T12:12:12.428Z,100607.03
2022-08-30T12:14:42.311Z,100608.09
2022-08-30T12:17:50.943Z,100607.50
2022-08-30T12:20:23.891Z,100607.25
2022-08-30T12:22:52.407Z,100596.03
2022-08-30T12:25:25.664Z,100595.75
2022-08-30T12:28:08.728Z,100597.38
2022-08-30T12:30:39.706Z,100599.03
2022-08-30T12:33:12.051Z,100592.69
2022-08-30T12:35:39.513Z,100586.72
2022-08-30T12:38:14.464Z,100591.34
2022-08-30T12:40:49.974Z,100579.34
2022-08-30T12:43:27.829Z,100577.94
2022-08-30T12:46:12.255Z,100570.81
2022-08-30T12:48:41.212Z,100567.78
2022-08-30T12:51:10.901Z,100566.44
2022-08-30T12:53:46.246Z,100560.97
2022-08-30T12:56:30.402Z,100557.69
2022-08-30T12:59:05.111Z,100554.16
2022-08-30T13:01:37.289Z,100541.88
2022-08-30T13:04:21.621Z,100543.00
2022-08-30T13:06:59.410Z,100541.88
2022-08-30T13:09:27.075Z,100544.63
2022-08-30T13:11:54.874Z,100535.34
2022-08-30T13:14:31.360Z,100535.34
2022-08-30T13:17:12.181Z,100539.78
2022-08-30T13:19:41.925Z,100525.63
2022-08-30T13:23:10.467Z,100528.88
2022-08-30T13:25:39.627Z,100531.03
2022-08-30T13:28:08.249Z,100528.38
2022-08-30T13:30:35.327Z,100527.00
2022-08-30T13:33:02.383Z,100529.16
2022-08-30T13:35:31.204Z,100525.66
2022-08-30T13:37:59.838Z,100522.94
2022-08-30T13:40:26.552Z,100518.81
2022-08-30T13:42:53.795Z,100521.56
2022-08-30T13:48:10.409Z,100521.88
2022-08-30T13:50:37.186Z,100520.78
2022-08-30T13:53:04.023Z,100512.56
2022-08-30T13:55:30.751Z,100518.56
2022-08-30T13:57:58.111Z,100517.47
2022-08-30T14:00:26.086Z,100514.22
2022-08-30T14:02:57.549Z,100509.84
2022-08-30T14:11:12.905Z,100513.13
2022-08-30T14:16:31.555Z,100501.13
2022-08-30T14:19:00.248Z,100495.13
2022-08-30T14:21:27.489Z,100493.78
2022-08-30T14:23:56.656Z,100485.88
2022-08-30T14:26:33.047Z,100482.59
2022-08-30T14:29:09.216Z,100484.19
2022-08-30T14:31:37.446Z,100485.03
2022-08-30T14:34:05.129Z,100493.22
2022-08-30T14:36:34.071Z,100487.78
2022-08-30T14:39:01.841Z,100493.22
2022-08-30T14:41:28.878Z,100487.47
2022-08-30T14:43:55.934Z,100486.41
2022-08-30T14:46:25.722Z,100484.50
2022-08-30T14:48:54.172Z,100482.59
2022-08-30T14:51:23.233Z,100477.13
2022-08-30T14:53:53.307Z,100480.44
2022-08-30T14:56:22.011Z,100474.13
2022-08-30T14:58:51.139Z,100472.25
2022-08-30T15:01:18.886Z,100472.25
2022-08-30T15:03:45.852Z,100473.88
2022-08-30T15:06:13.156Z,100475.25
2022-08-30T15:08:40.190Z,100466.75
2022-08-30T15:11:12.035Z,100470.31
2022-08-30T15:13:40.381Z,100468.16
2022-08-30T15:16:20.268Z,100462.13
2022-08-30T15:18:47.473Z,100466.78
2022-08-30T15:21:14.365Z,100464.31
2022-08-30T15:23:41.893Z,100467.31
2022-08-30T15:26:09.439Z,100466.75
2022-08-30T15:28:36.833Z,100465.69
2022-08-30T15:31:08.653Z,100466.75
2022-08-30T15:33:37.961Z,100463.75
2022-08-30T15:36:05.573Z,100463.75
2022-08-30T15:38:35.853Z,100459.13
2022-08-30T15:41:05.637Z,100459.66
2022-08-30T15:43:32.430Z,100463.50
2022-08-30T15:46:37.621Z,100462.66
2022-08-30T15:49:09.217Z,100461.00
2022-08-30T15:51:41.408Z,100462.66
2022-08-30T15:54:11.698Z,100458.00
2022-08-30T15:56:39.864Z,100458.56
2022-08-30T15:59:09.449Z,100447.59
2022-08-30T16:01:36.807Z,100450.31
2022-08-30T16:04:04.464Z,100447.88
2022-08-30T16:06:35.214Z,100446.22
2022-08-30T16:09:03.556Z,100454.13
2022-08-30T16:11:31.680Z,100450.06
2022-08-30T16:13:58.999Z,100450.84
2022-08-30T16:16:26.698Z,100448.63
2022-08-30T16:18:55.128Z,100447.81
2022-08-30T16:21:30.717Z,100452.44
2022-08-30T16:24:00.058Z,100447.81
2022-08-30T16:26:28.295Z,100443.72
2022-08-30T16:28:56.059Z,100450.53
2022-08-30T16:31:24.347Z,100442.06
2022-08-30T16:33:53.139Z,100441.53
2022-08-30T16:36:22.544Z,100440.41
2022-08-30T16:38:53.518Z,100435.25
2022-08-30T16:41:23.451Z,100440.94
2022-08-30T16:43:53.626Z,100441.69
2022-08-30T16:46:22.942Z,100431.88
2022-08-30T16:48:50.284Z,100444.69
2022-08-30T16:51:20.932Z,100444.66
2022-08-30T16:53:48.228Z,100437.03
2022-08-30T16:56:20.581Z,100441.88
2022-08-30T16:58:48.617Z,100438.56
2022-08-30T17:01:19.805Z,100447.53
2022-08-30T17:03:50.081Z,100447.53
2022-08-30T17:06:17.890Z,100444.19
2022-08-30T17:08:47.411Z,100450.94
2022-08-30T17:11:14.696Z,100447.09
2022-08-30T17:13:41.554Z,100452.00
2022-08-30T17:16:08.687Z,100447.38
2022-08-30T17:18:35.960Z,100454.47
2022-08-30T17:21:03.913Z,100453.59
2022-08-30T17:23:34.529Z,100460.38
2022-08-30T17:26:02.131Z,100459.53
2022-08-30T17:28:29.827Z,100467.31
2022-08-30T17:30:56.743Z,100469.69
2022-08-30T17:33:23.581Z,100470.16
2022-08-30T17:35:53.400Z,100470.88
2022-08-30T17:38:20.679Z,100477.03
2022-08-30T17:40:47.924Z,100471.81
2022-08-30T17:43:14.841Z,100474.16
2022-08-30T17:45:41.563Z,100487.34
2022-08-30T17:48:08.412Z,100494.88
2022-08-30T17:50:35.405Z,100497.16
2022-08-30T17:53:02.891Z,100501.50
2022-08-30T17:55:30.825Z,100494.34
2022-08-30T17:57:57.764Z,100493.69
2022-08-30T18:00:27.353Z,100499.56
2022-08-30T18:02:54.143Z,100504.13
2022-08-30T18:08:07.673Z,100503.00
2022-08-30T18:10:36.451Z,100509.25
2022-08-30T18:13:03.758Z,100506.47
2022-08-30T18:15:31.684Z,100512.66
2022-08-30T18:17:58.539Z,100514.13
2022-08-30T18:20:26.476Z,100517.72
2022-08-30T18:22:53.587Z,100525.06
2022-08-30T18:25:20.413Z,100531.13
2022-08-30T18:27:57.147Z,100526.88
2022-08-30T18:30:31.199Z,100533.44
2022-08-30T18:33:00.930Z,100538.41
2022-08-30T18:35:27.851Z,100540.63
2022-08-30T18:37:54.589Z,100545.84
2022-08-30T18:40:21.501Z,100541.34
2022-08-30T18:42:48.314Z,100550.56
2022-08-30T18:48:02.345Z,100560.47
2022-08-30T18:50:30.272Z,100556.34
2022-08-30T18:52:57.559Z,100561.50
2022-08-30T18:57:54.010Z,100555.03
2022-08-30T19:00:21.160Z,100563.50
2022-08-30T19:02:48.016Z,100563.13
2022-08-30T19:05:17.122Z,100562.31
2022-08-30T19:07:44.110Z,100570.50
2022-08-30T19:10:12.379Z,100566.38
2022-08-30T19:12:39.957Z,100562.31
2022-08-30T19:15:10.854Z,100571.69
2022-08-30T19:17:40.929Z,100561.44
2022-08-30T19:20:10.022Z,100571.88
2022-08-30T19:23:05.803Z,100569.03
2022-08-30T19:25:24.751Z,100571.38
2022-08-30T19:27:52.147Z,100570.34
2022-08-30T19:30:27.420Z,100565.19
2022-08-30T19:32:56.413Z,100559.84
2022-08-30T19:35:23.127Z,100568.03
2022-08-30T19:37:51.124Z,100563.13
2022-08-30T19:40:19.283Z,100568.84
2022-08-30T19:42:46.479Z,100566.56
2022-08-30T19:45:17.685Z,100570.34
2022-08-30T19:47:45.831Z,100575.16
2022-08-30T19:50:15.895Z,100573.31
2022-08-30T19:52:42.592Z,100570.50
2022-08-30T19:55:11.879Z,100576.78
2022-08-30T19:57:38.732Z,100571.31
2022-08-30T20:00:09.236Z,100573.25
2022-08-30T20:02:41.859Z,100579.38
2022-08-30T20:05:09.727Z,100585.31
2022-08-30T20:07:37.880Z,100578.47
2022-08-30T20:10:07.819Z,100582.28
2022-08-30T20:12:35.480Z,100579.06
2022-08-30T20:15:09.297Z,100578.50
2022-08-30T20:18:02.102Z,100574.09
2022-08-30T20:20:24.052Z,100569.25
2022-08-30T20:22:54.289Z,100574.47
2022-08-30T20:24:26.809Z,100498.84
2022-08-30T20:24:29.463Z,100550.00
2022-08-30T20:25:22.265Z,100567.84
2022-08-30T20:27:49.330Z,100567.91
2022-08-30T20:30:18.623Z,100571.38
2022-08-30T20:32:46.864Z,100568.31
2022-08-30T20:35:15.894Z,100565.22
2022-08-30T20:37:44.500Z,100567.34
2022-08-30T20:40:15.524Z,100570.09
2022-08-30T20:42:46.503Z,100568.50
2022-08-30T20:45:16.542Z,100565.91
2022-08-30T20:47:43.679Z,100571.41
2022-08-30T20:50:13.900Z,100569.03
2022-08-30T20:52:41.647Z,100563.06
2022-08-30T20:55:10.076Z,100565.78
2022-08-30T20:57:37.437Z,100563.78
2022-08-30T21:00:10.912Z,100564.13
2022-08-30T21:02:46.405Z,100565.28
2022-08-30T21:05:16.318Z,100564.75
2022-08-30T21:07:45.624Z,100561.66
2022-08-30T21:10:13.996Z,100561.84
2022-08-30T21:12:42.808Z,100563.94
2022-08-30T21:15:33.801Z,100553.41
2022-08-30T21:17:56.851Z,100554.44
2022-08-30T21:20:23.522Z,100554.69
2022-08-30T21:22:50.300Z,100541.78
2022-08-30T21:25:17.292Z,100541.03
2022-08-30T21:27:44.189Z,100532.72
2022-08-30T21:30:17.976Z,100542.22
2022-08-30T21:32:44.856Z,100542.84
2022-08-30T21:35:30.051Z,100543.69
2022-08-30T21:37:56.836Z,100539.19
2022-08-30T21:40:23.565Z,100546.13
2022-08-30T21:42:50.297Z,100536.56
2022-08-30T21:45:17.112Z,100525.81
2022-08-30T21:47:44.014Z,100529.13
2022-08-30T21:50:11.970Z,100531.22
2022-08-30T21:52:38.864Z,100526.03
2022-08-30T21:55:05.891Z,100524.56
2022-08-30T21:57:32.956Z,100529.13
2022-08-30T21:59:59.853Z,100523.94
2022-08-30T22:02:27.225Z,100520.03
2022-08-30T22:04:54.536Z,100529.41
2022-08-30T22:07:21.214Z,100529.78
2022-08-30T22:09:48.049Z,100526.94
2022-08-30T22:12:14.832Z,100526.50
2022-08-30T22:14:41.620Z,100527.50
2022-08-30T22:17:08.418Z,100531.25
2022-08-30T22:19:35.147Z,100533.91
2022-08-30T22:22:02.007Z,100526.50
2022-08-30T22:24:32.394Z,100525.94
2022-08-30T22:27:01.515Z,100537.31
2022-08-30T22:29:30.117Z,100535.19
2022-08-30T22:31:56.928Z,100535.97
2022-08-30T22:34:23.790Z,100532.81
2022-08-30T22:36:50.893Z,100537.56
2022-08-30T22:39:18.243Z,100537.75
2022-08-30T22:41:45.160Z,100541.47
2022-08-30T22:44:12.158Z,100529.44
2022-08-30T22:46:39.520Z,100532.13
2022-08-30T22:49:09.144Z,100532.94
2022-08-30T22:51:37.028Z,100537.38
2022-08-30T22:54:06.943Z,100534.91
2022-08-30T22:56:35.671Z,100533.91
2022-08-30T22:59:02.922Z,100530.44
2022-08-30T23:01:34.043Z,100524.63
2022-08-30T23:04:01.578Z,100521.78
2022-08-30T23:06:29.493Z,100532.53
2022-08-30T23:08:57.207Z,100522.63
2022-08-30T23:11:24.118Z,100534.03
2022-08-30T23:13:50.938Z,100536.50
2022-08-30T23:16:18.701Z,100536.75
2022-08-30T23:18:46.712Z,100534.25
2022-08-30T23:21:26.218Z,100532.81
2022-08-30T23:24:14.018Z,100532.19
2022-08-30T23:27:01.315Z,100525.78
2022-08-30T23:29:49.119Z,100526.81
2022-08-30T23:32:34.448Z,100527.66
2022-08-30T23:35:19.857Z,100528.03
2022-08-30T23:38:10.262Z,100529.50
2022-08-30T23:40:55.535Z,100528.69
2022-08-30T23:43:41.185Z,100523.91
2022-08-30T23:46:26.693Z,100523.31
2022-08-30T23:49:12.168Z,100518.31
2022-08-30T23:51:57.524Z,100507.97
2022-08-30T23:54:43.920Z,100500.72
2022-08-30T23:57:29.169Z,100507.59
